Time;durP1;ratioP1;P1;durP2;ratioP2;P2;SDS_P1;SDS_P2;PMS_P1;PMS_P2;Temp;Humidity;BMP_temperature;BMP_pressure;BME280_temperature;BME280_humidity;BME280_pressure;Samples;Min_cycle;Max_cycle;Signal;HPM_P1;HPM_P2
2022/07/17 00:00:25;;;;;;;4.82;2.50;;;24.80;52.40;;;;;;5003795;28;20026;-58
2022/07/17 00:02:50;;;;;;;4.60;2.40;;;24.80;52.40;;;;;;5006612;28;20546;-58
2022/07/17 00:05:17;;;;;;;4.38;2.50;;;24.80;52.40;;;;;;5004079;28;20038;-58
2022/07/17 00:07:42;;;;;;;5.38;2.50;;;24.80;52.50;;;;;;5007969;28;20104;-58
2022/07/17 00:10:08;;;;;;;5.45;2.65;;;24.80;52.40;;;;;;5008337;28;20120;-58
2022/07/17 00:12:34;;;;;;;5.75;2.50;;;24.80;52.50;;;;;;5002222;28;20026;-58
2022/07/17 00:15:00;;;;;;;4.65;2.50;;;24.80;52.50;;;;;;5003549;28;20100;-59
2022/07/17 00:17:26;;;;;;;4.93;2.55;;;24.80;52.50;;;;;;5006466;28;20034;-58
2022/07/17 00:19:51;;;;;;;5.20;2.45;;;24.80;52.50;;;;;;5007773;28;20038;-59
2022/07/17 00:22:17;;;;;;;4.47;2.50;;;24.80;52.60;;;;;;5006607;28;20033;-58
2022/07/17 00:24:43;;;;;;;5.40;2.50;;;24.80;52.60;;;;;;5004146;28;20029;-58
2022/07/17 00:27:08;;;;;;;5.55;2.50;;;24.70;52.50;;;;;;5007176;28;20029;-58
2022/07/17 00:29:34;;;;;;;5.78;2.67;;;24.80;52.60;;;;;;5005767;28;20040;-58
2022/07/17 00:32:00;;;;;;;4.25;2.22;;;24.70;52.60;;;;;;5005746;28;20030;-58
2022/07/17 00:34:27;;;;;;;6.68;2.67;;;24.80;52.70;;;;;;5004080;28;20069;-59
2022/07/17 00:36:52;;;;;;;4.35;2.30;;;24.70;52.60;;;;;;5005863;28;20703;-58
2022/07/17 00:39:18;;;;;;;5.03;2.45;;;24.80;52.70;;;;;;5005917;28;20455;-58
2022/07/17 00:41:45;;;;;;;4.65;2.47;;;24.70;52.70;;;;;;5005222;28;20550;-58
2022/07/17 00:44:14;;;;;;;4.68;2.35;;;24.70;52.60;;;;;;5005109;28;20037;-58
2022/07/17 00:46:40;;;;;;;3.50;2.20;;;24.70;52.70;;;;;;5004318;28;20193;-58
2022/07/17 00:49:06;;;;;;;4.93;2.40;;;24.70;52.70;;;;;;5004700;28;20079;-58
2022/07/17 00:51:32;;;;;;;4.60;2.20;;;24.70;52.70;;;;;;5006438;28;20046;-58
2022/07/17 00:53:58;;;;;;;5.38;2.42;;;24.70;52.70;;;;;;5004435;28;20406;-58
2022/07/17 00:56:24;;;;;;;3.45;2.13;;;24.70;53.80;;;;;;5004645;28;20033;-58
2022/07/17 00:58:50;;;;;;;6.03;2.55;;;24.70;52.70;;;;;;5004258;28;20109;-58
2022/07/17 01:01:16;;;;;;;4.28;2.33;;;24.60;52.70;;;;;;5004713;28;20072;-58
2022/07/17 01:03:41;;;;;;;4.20;2.20;;;24.70;52.80;;;;;;5003587;28;20043;-58
2022/07/17 01:06:07;;;;;;;4.38;2.25;;;24.60;52.70;;;;;;5007654;28;20034;-58
2022/07/17 01:08:33;;;;;;;4.40;2.15;;;24.60;52.70;;;;;;5006455;28;20041;-58
2022/07/17 01:10:59;;;;;;;4.78;2.38;;;24.60;52.70;;;;;;5008169;28;20048;-58
2022/07/17 01:13:24;;;;;;;3.63;2.20;;;24.60;52.80;;;;;;5003863;28;20447;-58
2022/07/17 01:15:50;;;;;;;4.18;2.28;;;24.60;52.70;;;;;;5018035;28;20049;-59
2022/07/17 01:18:16;;;;;;;4.95;2.50;;;24.60;52.80;;;;;;5003682;28;20117;-58
2022/07/17 01:20:43;;;;;;;4.20;2.15;;;24.60;52.90;;;;;;5004227;28;20469;-58
2022/07/17 01:23:09;;;;;;;4.13;2.10;;;24.60;52.80;;;;;;5004642;28;20026;-59
2022/07/17 01:25:35;;;;;;;4.30;2.30;;;24.60;52.80;;;;;;5005954;28;20503;-58
2022/07/17 01:28:00;;;;;;;5.07;2.30;;;24.60;52.80;;;;;;5006234;28;20132;-58
2022/07/17 01:30:26;;;;;;;4.38;2.30;;;24.60;52.80;;;;;;5004148;28;20018;-58
2022/07/17 01:32:52;;;;;;;4.38;2.50;;;24.60;52.80;;;;;;5004583;28;20038;-58
2022/07/17 01:35:18;;;;;;;4.32;2.10;;;24.60;52.90;;;;;;5006072;28;20569;-58
2022/07/17 01:37:44;;;;;;;4.38;2.45;;;24.60;52.90;;;;;;5005315;28;20105;-58
2022/07/17 01:40:12;;;;;;;4.32;2.42;;;24.60;52.90;;;;;;5003987;28;20052;-58
2022/07/17 01:42:39;;;;;;;3.15;2.10;;;24.60;52.90;;;;;;5003730;28;20026;-58
2022/07/17 01:45:05;;;;;;;4.10;2.30;;;24.60;53.00;;;;;;5005127;28;20033;-59
2022/07/17 01:47:31;;;;;;;4.15;2.28;;;24.60;52.90;;;;;;5005039;28;20130;-58
2022/07/17 01:49:57;;;;;;;4.07;2.40;;;24.50;52.90;;;;;;5004507;28;20548;-58
2022/07/17 01:52:23;;;;;;;4.93;2.30;;;24.50;52.90;;;;;;5005672;28;20057;-58
2022/07/17 01:54:49;;;;;;;4.63;2.35;;;24.50;52.90;;;;;;5006369;28;20031;-58
2022/07/17 01:57:14;;;;;;;4.80;2.25;;;24.50;52.90;;;;;;5003390;28;20026;-58
2022/07/17 01:59:40;;;;;;;5.30;2.35;;;24.50;52.90;;;;;;5005303;28;20044;-58
2022/07/17 02:02:06;;;;;;;3.47;1.98;;;24.50;52.90;;;;;;5003377;28;20032;-58
2022/07/17 02:04:33;;;;;;;4.82;2.40;;;24.50;52.90;;;;;;5004571;28;20129;-58
2022/07/17 02:06:59;;;;;;;3.35;2.08;;;24.50;52.90;;;;;;5003796;28;20084;-58
2022/07/17 02:09:24;;;;;;;3.88;2.20;;;24.50;52.90;;;;;;5007770;28;20410;-58
2022/07/17 02:11:50;;;;;;;3.97;1.98;;;24.50;52.90;;;;;;5008168;28;20057;-58
2022/07/17 02:14:15;;;;;;;3.58;1.95;;;24.50;53.00;;;;;;5007873;28;20030;-59
2022/07/17 02:16:41;;;;;;;4.28;2.10;;;24.50;53.00;;;;;;5011237;28;20453;-58
2022/07/17 02:19:07;;;;;;;4.10;2.30;;;24.50;53.00;;;;;;5006801;28;20042;-58
2022/07/17 02:21:32;;;;;;;4.03;2.13;;;24.50;53.00;;;;;;5008840;28;20029;-58
2022/07/17 02:23:58;;;;;;;3.72;2.25;;;24.50;53.00;;;;;;5004440;28;20403;-58
2022/07/17 02:26:24;;;;;;;4.22;2.10;;;24.40;53.00;;;;;;5009381;28;20091;-58
2022/07/17 02:28:49;;;;;;;4.85;2.30;;;24.40;53.00;;;;;;5006927;28;20038;-58
2022/07/17 02:31:15;;;;;;;3.17;2.10;;;24.40;53.00;;;;;;5008429;28;20542;-58
2022/07/17 02:33:41;;;;;;;3.72;2.22;;;24.40;53.00;;;;;;5008885;28;20403;-58
2022/07/17 02:36:06;;;;;;;4.13;2.13;;;24.40;53.00;;;;;;5009586;28;20030;-58
2022/07/17 02:38:32;;;;;;;3.53;1.90;;;24.40;53.00;;;;;;5008881;28;20053;-59
2022/07/17 02:40:58;;;;;;;3.17;2.05;;;24.40;53.30;;;;;;5008328;28;20511;-59
2022/07/17 02:43:23;;;;;;;3.75;2.10;;;24.40;53.00;;;;;;5007206;28;20065;-58
2022/07/17 02:45:49;;;;;;;3.75;2.10;;;24.40;53.00;;;;;;5007144;28;20053;-58
2022/07/17 02:48:15;;;;;;;3.72;2.20;;;24.40;53.00;;;;;;5009076;28;20040;-58
2022/07/17 02:50:40;;;;;;;3.92;2.10;;;24.40;53.00;;;;;;5008812;28;20022;-58
2022/07/17 02:53:06;;;;;;;3.50;2.20;;;24.40;53.10;;;;;;5007224;28;20140;-58
2022/07/17 02:55:32;;;;;;;4.50;2.20;;;24.40;53.00;;;;;;5009228;28;20029;-58
2022/07/17 02:57:57;;;;;;;3.53;2.30;;;24.40;53.10;;;;;;5006206;28;20030;-58
2022/07/17 03:00:23;;;;;;;3.28;1.98;;;24.40;53.10;;;;;;5007605;28;20115;-58
2022/07/17 03:02:49;;;;;;;3.97;2.10;;;24.40;53.10;;;;;;5005962;28;20041;-58
2022/07/17 03:05:15;;;;;;;3.88;1.88;;;24.40;53.10;;;;;;5019463;28;20033;-58
2022/07/17 03:07:40;;;;;;;5.65;2.38;;;24.40;53.10;;;;;;5006915;28;20088;-58
2022/07/17 03:10:07;;;;;;;3.97;2.00;;;24.40;53.10;;;;;;5008013;28;20081;-59
2022/07/17 03:12:33;;;;;;;3.03;1.95;;;24.40;53.10;;;;;;5007531;28;20034;-58
2022/07/17 03:14:58;;;;;;;3.40;2.10;;;24.40;53.20;;;;;;5008783;28;20026;-58
2022/07/17 03:17:24;;;;;;;3.20;1.90;;;24.30;53.20;;;;;;5004643;28;20038;-58
2022/07/17 03:19:50;;;;;;;3.95;1.83;;;24.40;53.20;;;;;;5008284;28;20034;-58
2022/07/17 03:22:15;;;;;;;3.25;2.10;;;24.30;53.20;;;;;;5008317;28;20513;-58
2022/07/17 03:24:41;;;;;;;3.58;1.90;;;24.30;53.20;;;;;;5007308;28;20022;-58
2022/07/17 03:27:07;;;;;;;4.00;2.05;;;24.30;53.20;;;;;;5008110;28;20442;-58
2022/07/17 03:29:32;;;;;;;3.58;1.77;;;24.30;53.20;;;;;;5006680;28;20040;-58
2022/07/17 03:31:58;;;;;;;3.92;2.10;;;24.30;53.20;;;;;;5003578;28;20085;-58
2022/07/17 03:34:24;;;;;;;3.25;2.08;;;24.30;53.20;;;;;;5007814;28;20057;-58
2022/07/17 03:36:50;;;;;;;5.38;2.25;;;24.30;53.30;;;;;;5007964;28;20025;-58
2022/07/17 03:39:15;;;;;;;4.10;2.10;;;24.30;53.30;;;;;;5006128;28;20818;-58
2022/07/17 03:41:41;;;;;;;2.92;1.88;;;24.30;53.30;;;;;;5008004;28;20306;-58
2022/07/17 03:44:07;;;;;;;3.40;2.08;;;24.30;53.20;;;;;;5006533;28;20037;-58
2022/07/17 03:46:32;;;;;;;3.60;2.10;;;24.30;53.20;;;;;;5006805;28;20026;-59
2022/07/17 03:48:58;;;;;;;4.18;2.00;;;24.30;53.20;;;;;;5004814;28;20038;-59
2022/07/17 03:51:24;;;;;;;3.72;2.03;;;24.30;53.20;;;;;;5007894;28;20048;-58
2022/07/17 03:53:49;;;;;;;2.70;1.90;;;24.30;53.20;;;;;;5005740;28;20038;-58
2022/07/17 03:56:15;;;;;;;4.05;1.90;;;24.20;53.30;;;;;;5007078;28;20554;-58
2022/07/17 03:58:41;;;;;;;3.28;2.00;;;24.20;53.30;;;;;;5004358;28;20030;-58
2022/07/17 04:01:06;;;;;;;3.78;2.10;;;24.30;53.40;;;;;;5006890;28;20446;-58
2022/07/17 04:03:32;;;;;;;3.22;1.70;;;24.20;53.30;;;;;;5005257;28;20029;-58
2022/07/17 04:05:58;;;;;;;3.20;1.90;;;24.30;53.30;;;;;;5006470;28;20064;-58
2022/07/17 04:08:23;;;;;;;3.38;2.08;;;24.20;53.30;;;;;;5008181;28;20499;-58
2022/07/17 04:10:49;;;;;;;4.13;2.10;;;24.20;53.40;;;;;;5006903;28;20522;-58
2022/07/17 04:13:15;;;;;;;3.53;2.00;;;24.30;53.40;;;;;;5006475;28;20522;-58
2022/07/17 04:15:50;;;;;;;4.07;2.20;;;24.20;53.40;;;;;;5005461;28;20505;-58
2022/07/17 04:18:35;;;;;;;3.55;2.15;;;24.20;53.40;;;;;;5005873;28;20032;-59
2022/07/17 04:21:05;;;;;;;3.50;1.90;;;24.20;53.40;;;;;;5005424;28;20052;-58
2022/07/17 04:23:31;;;;;;;3.80;1.90;;;24.20;53.40;;;;;;5006107;28;20376;-58
2022/07/17 04:25:57;;;;;;;3.38;2.03;;;24.20;53.40;;;;;;5005318;28;20519;-58
2022/07/17 04:28:23;;;;;;;4.38;2.00;;;24.20;53.40;;;;;;5006940;28;20041;-59
2022/07/17 04:30:48;;;;;;;3.47;1.98;;;24.20;53.40;;;;;;5005298;28;20105;-58
2022/07/17 04:33:14;;;;;;;3.20;2.05;;;24.20;53.40;;;;;;5003876;28;20030;-58
2022/07/17 04:35:40;;;;;;;3.17;1.75;;;24.20;53.40;;;;;;5008027;28;20022;-58
2022/07/17 04:38:06;;;;;;;3.65;2.08;;;24.10;53.40;;;;;;5006052;28;20767;-58
2022/07/17 04:40:32;;;;;;;2.88;1.83;;;24.20;53.40;;;;;;4989822;28;20049;-58
2022/07/17 04:42:58;;;;;;;4.00;1.98;;;24.10;53.40;;;;;;5006111;28;20079;-58
2022/07/17 04:45:24;;;;;;;3.53;1.80;;;24.10;53.40;;;;;;5001693;28;20029;-58
2022/07/17 04:47:49;;;;;;;3.10;1.80;;;24.10;53.40;;;;;;5007304;28;20034;-58
2022/07/17 04:50:15;;;;;;;3.22;1.98;;;24.10;53.40;;;;;;5003078;28;20498;-58
2022/07/17 04:52:40;;;;;;;2.72;1.90;;;24.10;53.50;;;;;;5006086;28;20461;-58
2022/07/17 04:55:06;;;;;;;3.00;2.00;;;24.10;53.50;;;;;;5006356;28;20030;-58
2022/07/17 04:57:32;;;;;;;2.70;1.77;;;24.10;53.50;;;;;;5007244;28;20029;-58
2022/07/17 04:59:58;;;;;;;3.58;2.10;;;24.10;53.50;;;;;;5005949;28;20040;-58
2022/07/17 05:02:23;;;;;;;3.60;2.00;;;24.10;53.50;;;;;;5006749;28;20022;-58
2022/07/17 05:04:49;;;;;;;3.42;1.83;;;24.10;53.50;;;;;;5004987;28;20026;-59
2022/07/17 05:07:15;;;;;;;3.38;2.00;;;24.10;54.60;;;;;;5005233;28;20030;-58
2022/07/17 05:09:41;;;;;;;2.35;1.60;;;24.10;53.50;;;;;;4986498;28;20033;-58
2022/07/17 05:12:06;;;;;;;2.97;1.75;;;24.10;53.50;;;;;;5002065;28;20046;-58
2022/07/17 05:14:32;;;;;;;3.28;1.90;;;24.10;53.50;;;;;;5005601;28;20033;-58
2022/07/17 05:16:58;;;;;;;3.03;1.90;;;24.10;53.60;;;;;;5006221;28;20037;-58
2022/07/17 05:19:23;;;;;;;3.28;1.80;;;24.10;53.60;;;;;;5003563;28;20050;-59
2022/07/17 05:21:49;;;;;;;4.35;2.33;;;24.10;53.60;;;;;;5004949;28;20026;-58
2022/07/17 05:24:15;;;;;;;3.13;1.80;;;24.10;53.60;;;;;;5004224;28;20085;-58
2022/07/17 05:26:41;;;;;;;3.38;1.92;;;24.10;53.60;;;;;;5004427;28;20018;-59
2022/07/17 05:29:06;;;;;;;2.80;1.80;;;24.00;53.50;;;;;;5002958;28;20046;-58
2022/07/17 05:31:32;;;;;;;3.67;1.85;;;24.00;53.50;;;;;;5002996;28;20028;-59
2022/07/17 05:33:58;;;;;;;2.88;1.60;;;24.00;53.70;;;;;;5005304;28;20506;-58
2022/07/17 05:36:24;;;;;;;3.40;1.92;;;24.00;53.60;;;;;;5002065;28;20034;-58
2022/07/17 05:38:49;;;;;;;3.25;1.88;;;24.00;54.70;;;;;;5017217;28;20033;-58
2022/07/17 05:41:15;;;;;;;2.97;1.83;;;24.00;53.70;;;;;;5006070;28;20418;-58
2022/07/17 05:43:41;;;;;;;3.45;1.90;;;24.00;53.70;;;;;;5005868;28;20111;-59
2022/07/17 05:46:06;;;;;;;3.53;1.85;;;24.00;53.70;;;;;;5003888;28;20046;-59
2022/07/17 05:48:32;;;;;;;2.75;2.00;;;24.00;53.70;;;;;;5008176;28;20030;-59
2022/07/17 05:50:58;;;;;;;2.92;1.85;;;24.00;53.70;;;;;;5007746;28;20033;-58
2022/07/17 05:53:23;;;;;;;2.80;1.65;;;24.00;53.70;;;;;;5021190;28;20629;-58
2022/07/17 05:55:49;;;;;;;2.53;1.80;;;24.00;53.70;;;;;;5007178;28;20033;-59
2022/07/17 05:58:15;;;;;;;3.10;1.73;;;24.00;53.70;;;;;;5007271;28;20534;-59
2022/07/17 06:00:40;;;;;;;3.20;1.90;;;24.00;53.70;;;;;;5008697;28;20026;-59
2022/07/17 06:03:06;;;;;;;2.92;1.70;;;24.00;53.80;;;;;;5008310;28;20137;-58
2022/07/17 06:05:34;;;;;;;3.58;1.98;;;24.00;53.70;;;;;;5007057;28;20483;-58
2022/07/17 06:08:00;;;;;;;2.95;1.73;;;24.00;53.70;;;;;;5005471;28;20042;-59
2022/07/17 06:10:26;;;;;;;3.45;1.80;;;24.00;53.80;;;;;;5021342;28;20044;-58
2022/07/17 06:12:54;;;;;;;3.05;1.85;;;24.00;53.80;;;;;;5007779;28;20030;-59
2022/07/17 06:15:20;;;;;;;3.00;1.55;;;24.00;53.80;;;;;;5007077;28;20026;-58
2022/07/17 06:17:47;;;;;;;2.70;1.70;;;23.90;53.80;;;;;;5004898;28;20021;-59
2022/07/17 06:20:13;;;;;;;3.35;1.73;;;23.90;53.70;;;;;;5007336;28;20050;-58
2022/07/17 06:22:39;;;;;;;3.03;1.70;;;23.90;53.70;;;;;;5009641;28;20030;-59
2022/07/17 06:25:05;;;;;;;2.70;1.80;;;23.90;53.80;;;;;;5008694;28;20073;-59
2022/07/17 06:27:32;;;;;;;2.90;1.83;;;23.90;53.80;;;;;;5008791;28;20026;-59
2022/07/17 06:29:57;;;;;;;2.33;1.70;;;23.90;53.80;;;;;;5005640;28;20022;-58
2022/07/17 06:32:23;;;;;;;2.75;1.80;;;23.90;53.80;;;;;;5006461;28;20023;-59
2022/07/17 06:34:49;;;;;;;3.20;1.90;;;23.90;53.80;;;;;;5006913;28;20401;-59
2022/07/17 06:37:15;;;;;;;3.97;1.90;;;23.90;53.90;;;;;;5007467;28;20096;-59
2022/07/17 06:39:42;;;;;;;2.40;1.77;;;23.90;53.80;;;;;;5004244;28;20503;-58
2022/07/17 06:42:07;;;;;;;3.88;2.00;;;23.90;53.80;;;;;;5020172;28;20577;-58
2022/07/17 06:44:34;;;;;;;3.30;1.80;;;23.90;53.90;;;;;;5005689;28;20093;-59
2022/07/17 06:47:00;;;;;;;2.35;1.60;;;23.90;53.90;;;;;;5008224;28;20033;-58
2022/07/17 06:49:26;;;;;;;3.75;1.80;;;23.90;53.90;;;;;;5006283;28;20121;-58
2022/07/17 06:51:52;;;;;;;2.67;1.75;;;23.90;53.90;;;;;;5003708;28;20447;-58
2022/07/17 06:54:17;;;;;;;3.25;1.83;;;23.90;53.90;;;;;;5008419;28;20033;-58
2022/07/17 06:56:43;;;;;;;2.30;1.60;;;23.90;53.90;;;;;;5006004;28;20030;-59
2022/07/17 06:59:09;;;;;;;2.33;1.80;;;23.90;53.90;;;;;;5005273;28;20033;-59
2022/07/17 07:01:35;;;;;;;3.00;1.90;;;23.90;53.90;;;;;;5003949;28;20046;-58
2022/07/17 07:04:03;;;;;;;3.08;1.73;;;23.90;54.90;;;;;;5003974;28;20084;-59
2022/07/17 07:06:29;;;;;;;2.65;1.80;;;23.90;53.90;;;;;;5003270;28;20030;-58
2022/07/17 07:08:55;;;;;;;2.88;1.90;;;23.90;54.00;;;;;;5007457;28;20136;-59
2022/07/17 07:11:21;;;;;;;2.70;1.80;;;23.90;54.00;;;;;;5004594;28;20569;-58
2022/07/17 07:13:46;;;;;;;2.97;1.85;;;23.90;53.90;;;;;;5009210;28;20051;-58
2022/07/17 07:16:12;;;;;;;2.90;1.80;;;23.90;53.90;;;;;;5003261;28;20093;-58
2022/07/17 07:18:38;;;;;;;2.00;1.60;;;23.80;54.90;;;;;;5007172;28;20033;-58
2022/07/17 07:21:03;;;;;;;2.50;1.60;;;23.80;53.90;;;;;;5003779;28;20546;-59
2022/07/17 07:23:29;;;;;;;2.30;1.67;;;23.90;54.00;;;;;;5004322;28;20033;-59
2022/07/17 07:25:55;;;;;;;3.00;1.80;;;23.90;54.00;;;;;;4999592;28;20063;-59
2022/07/17 07:28:21;;;;;;;2.65;1.73;;;23.90;54.00;;;;;;5006716;28;20411;-58
2022/07/17 07:30:46;;;;;;;2.95;1.90;;;23.90;54.00;;;;;;5006746;28;20136;-58
2022/07/17 07:33:12;;;;;;;2.95;1.65;;;23.80;54.00;;;;;;5005633;28;20730;-58
2022/07/17 07:35:38;;;;;;;2.90;1.77;;;23.80;54.00;;;;;;4999579;28;20068;-58
2022/07/17 07:38:03;;;;;;;2.45;1.75;;;23.90;53.90;;;;;;5004700;28;20477;-58
2022/07/17 07:40:30;;;;;;;3.65;1.80;;;23.80;53.80;;;;;;5005294;28;20021;-58
2022/07/17 07:42:56;;;;;;;4.22;1.83;;;23.90;54.00;;;;;;5005174;28;20041;-58
2022/07/17 07:45:22;;;;;;;3.72;1.83;;;23.90;54.00;;;;;;5006586;28;20018;-58
2022/07/17 07:47:50;;;;;;;3.03;1.70;;;23.90;54.00;;;;;;5005439;28;20867;-58
2022/07/17 07:50:15;;;;;;;4.65;1.80;;;23.90;54.00;;;;;;5004846;28;20147;-59
2022/07/17 07:52:41;;;;;;;3.60;1.70;;;23.90;54.10;;;;;;5005166;28;20490;-58
2022/07/17 07:55:10;;;;;;;5.25;1.90;;;24.00;54.10;;;;;;5002348;28;20069;-58
2022/07/17 07:57:36;;;;;;;3.85;1.90;;;24.00;54.20;;;;;;5002508;28;20028;-59
2022/07/17 08:00:04;;;;;;;5.20;2.10;;;24.00;54.10;;;;;;5003986;28;20037;-58
2022/07/17 08:02:29;;;;;;;3.88;2.15;;;24.10;54.20;;;;;;5004460;28;20084;-58
2022/07/17 08:04:55;;;;;;;5.07;2.30;;;24.10;54.00;;;;;;5006427;28;20441;-58
2022/07/17 08:07:21;;;;;;;4.18;2.10;;;24.10;54.00;;;;;;5003635;28;20029;-58
2022/07/17 08:09:48;;;;;;;9.20;2.70;;;24.10;54.10;;;;;;5008017;28;20037;-58
2022/07/17 08:12:14;;;;;;;8.43;2.60;;;24.10;54.20;;;;;;5005375;28;20109;-58
2022/07/17 08:14:39;;;;;;;6.45;2.50;;;24.20;54.30;;;;;;5005993;28;20149;-59
2022/07/17 08:17:05;;;;;;;5.95;2.60;;;24.20;54.30;;;;;;5005107;28;20030;-58
2022/07/17 08:19:30;;;;;;;6.93;2.50;;;24.20;54.10;;;;;;5004120;28;20046;-58
2022/07/17 08:21:56;;;;;;;11.00;3.10;;;24.30;54.30;;;;;;5003921;28;20080;-58
2022/07/17 08:24:22;;;;;;;7.82;2.97;;;24.30;54.50;;;;;;5004556;28;20034;-58
2022/07/17 08:26:48;;;;;;;6.68;2.60;;;24.30;54.40;;;;;;5004408;28;20022;-59
2022/07/17 08:29:15;;;;;;;9.98;2.95;;;24.40;54.40;;;;;;5002695;28;20037;-58
2022/07/17 08:31:41;;;;;;;6.13;2.60;;;24.40;54.00;;;;;;5003968;28;20087;-58
2022/07/17 08:34:07;;;;;;;5.80;3.13;;;24.40;53.40;;;;;;5003479;28;20046;-58
2022/07/17 08:36:32;;;;;;;6.60;2.90;;;24.50;52.80;;;;;;5005058;28;20033;-58
2022/07/17 08:38:58;;;;;;;5.35;2.90;;;24.50;52.60;;;;;;5004516;28;20510;-58
2022/07/17 08:41:24;;;;;;;10.25;2.70;;;24.50;52.50;;;;;;5006220;28;20109;-58
2022/07/17 08:43:51;;;;;;;7.97;2.85;;;24.50;52.20;;;;;;5003363;28;20026;-59
2022/07/17 08:46:17;;;;;;;8.70;2.80;;;24.60;52.00;;;;;;5002800;28;20045;-58
2022/07/17 08:48:45;;;;;;;8.90;4.78;;;24.60;51.80;;;;;;5004240;28;20169;-59
2022/07/17 08:51:11;;;;;;;7.82;3.60;;;24.60;51.80;;;;;;5000994;28;20030;-59
2022/07/17 08:53:37;;;;;;;9.10;3.38;;;24.60;51.60;;;;;;5004109;28;20083;-59
2022/07/17 08:56:03;;;;;;;6.93;3.10;;;24.70;51.20;;;;;;5004593;28;20038;-59
2022/07/17 08:58:29;;;;;;;7.20;3.17;;;24.70;51.00;;;;;;5004428;28;20563;-58
2022/07/17 09:00:55;;;;;;;8.40;3.50;;;24.70;50.80;;;;;;5002401;28;20040;-58
2022/07/17 09:03:23;;;;;;;7.18;3.17;;;24.80;50.10;;;;;;5005246;28;20100;-59
2022/07/17 09:05:48;;;;;;;8.10;3.60;;;24.80;49.60;;;;;;5000292;28;20064;-58
2022/07/17 09:08:22;;;;;;;7.95;3.15;;;24.80;49.50;;;;;;5004813;28;20121;-58
2022/07/17 09:10:51;;;;;;;6.65;3.22;;;24.90;49.10;;;;;;5003556;28;20049;-59
2022/07/17 09:13:29;;;;;;;7.25;2.85;;;24.90;49.00;;;;;;5002100;28;20384;-59
2022/07/17 09:16:13;;;;;;;8.88;3.28;;;24.90;48.30;;;;;;5003075;28;20037;-59
2022/07/17 09:18:46;;;;;;;7.28;2.65;;;25.00;48.50;;;;;;5006030;28;20450;-59
2022/07/17 09:21:23;;;;;;;8.38;2.83;;;25.00;48.10;;;;;;5005205;28;20030;-59
2022/07/17 09:24:09;;;;;;;5.93;2.97;;;25.00;47.50;;;;;;5005484;28;20033;-59
2022/07/17 09:26:37;;;;;;;5.78;2.90;;;25.00;47.40;;;;;;5005023;28;20026;-58
2022/07/17 09:29:03;;;;;;;7.10;3.22;;;25.10;47.40;;;;;;5003071;28;20388;-59
2022/07/17 09:31:30;;;;;;;5.80;2.70;;;25.10;47.30;;;;;;5003268;28;20038;-59
2022/07/17 09:33:56;;;;;;;6.20;3.13;;;25.10;46.60;;;;;;5001611;28;20038;-59
2022/07/17 09:36:22;;;;;;;6.32;2.80;;;25.20;47.20;;;;;;5005426;28;20101;-59
2022/07/17 09:38:49;;;;;;;5.28;2.70;;;25.20;46.90;;;;;;5004644;28;20116;-58
2022/07/17 09:41:16;;;;;;;8.55;2.83;;;25.20;46.30;;;;;;5006112;28;20045;-59
2022/07/17 09:43:46;;;;;;;8.57;3.00;;;25.20;45.80;;;;;;5005090;28;20104;-59
2022/07/17 09:46:14;;;;;;;6.85;2.95;;;25.30;45.50;;;;;;5000687;28;20422;-58
2022/07/17 09:48:42;;;;;;;7.50;2.92;;;25.30;45.70;;;;;;5005499;28;20042;-58
2022/07/17 09:51:08;;;;;;;7.28;3.08;;;25.30;46.10;;;;;;5003924;28;20338;-59
2022/07/17 09:53:34;;;;;;;7.13;2.83;;;25.30;45.80;;;;;;5019493;28;20026;-59
2022/07/17 09:56:02;;;;;;;8.32;2.95;;;25.40;45.50;;;;;;4987378;28;20764;-58
2022/07/17 09:58:28;;;;;;;7.72;2.80;;;25.40;45.50;;;;;;5017583;28;20104;-59
2022/07/17 10:00:53;;;;;;;6.50;2.90;;;25.40;44.70;;;;;;5002491;28;20128;-59
2022/07/17 10:03:19;;;;;;;10.00;3.13;;;25.40;44.50;;;;;;5002438;28;20101;-59
2022/07/17 10:05:45;;;;;;;5.43;2.80;;;25.40;44.20;;;;;;5000668;28;20390;-59
2022/07/17 10:08:11;;;;;;;5.63;2.80;;;25.30;44.80;;;;;;5000286;28;20034;-59
2022/07/17 10:10:37;;;;;;;9.48;3.25;;;25.30;45.00;;;;;;5002558;28;20105;-59
2022/07/17 10:13:02;;;;;;;8.40;3.03;;;25.20;45.10;;;;;;4987095;28;20034;-59
2022/07/17 10:15:28;;;;;;;7.25;3.10;;;25.20;45.70;;;;;;5004705;28;20040;-59
2022/07/17 10:18:04;;;;;;;8.63;2.90;;;25.10;46.00;;;;;;5003918;28;20218;-59
2022/07/17 10:20:30;;;;;;;8.82;3.25;;;25.10;46.30;;;;;;5005327;28;20475;-59
2022/07/17 10:22:56;;;;;;;8.23;3.30;;;25.10;46.40;;;;;;5004990;28;20065;-59
2022/07/17 10:25:22;;;;;;;7.07;2.75;;;25.10;46.50;;;;;;5004470;28;20029;-59
2022/07/17 10:27:49;;;;;;;8.38;3.10;;;25.10;46.60;;;;;;5007113;28;20057;-59
2022/07/17 10:30:28;;;;;;;8.35;3.10;;;25.10;46.70;;;;;;5019442;28;20124;-59
2022/07/17 10:32:58;;;;;;;6.72;2.88;;;25.10;46.80;;;;;;5008991;28;20034;-59
2022/07/17 10:35:24;;;;;;;8.38;3.08;;;25.10;46.90;;;;;;5009951;28;20033;-59
2022/07/17 10:37:49;;;;;;;5.45;2.70;;;25.10;47.00;;;;;;5007518;28;20414;-59
2022/07/17 10:40:22;;;;;;;9.23;3.10;;;25.10;47.10;;;;;;5005660;28;20390;-59
2022/07/17 10:43:04;;;;;;;6.15;2.72;;;25.10;47.10;;;;;;5008453;28;20080;-59
2022/07/17 10:45:42;;;;;;;7.53;2.90;;;25.10;47.10;;;;;;5007368;28;20028;-59
2022/07/17 10:48:14;;;;;;;6.05;2.72;;;25.10;47.20;;;;;;5006997;28;20064;-59
2022/07/17 10:50:45;;;;;;;7.50;2.85;;;25.20;46.40;;;;;;5009376;28;20112;-58
2022/07/17 10:53:16;;;;;;;6.80;3.00;;;25.20;46.10;;;;;;5007798;28;20034;-59
2022/07/17 10:55:46;;;;;;;7.70;2.85;;;25.20;46.40;;;;;;5005600;28;20507;-59
2022/07/17 10:58:21;;;;;;;10.27;3.00;;;25.20;46.20;;;;;;5006146;28;20046;-59
2022/07/17 11:00:58;;;;;;;7.93;3.08;;;25.20;46.00;;;;;;5006969;28;20022;-59
2022/07/17 11:03:23;;;;;;;6.78;3.03;;;25.20;46.70;;;;;;5001925;28;20045;-59
2022/07/17 11:05:49;;;;;;;13.18;3.13;;;25.30;46.70;;;;;;5006858;28;20026;-59
2022/07/17 11:08:15;;;;;;;11.40;4.85;;;25.30;46.10;;;;;;5021326;28;20033;-59
2022/07/17 11:10:40;;;;;;;9.38;3.80;;;25.30;46.60;;;;;;5005936;28;20058;-59
2022/07/17 11:13:11;;;;;;;12.18;3.67;;;25.40;46.50;;;;;;5005952;28;20049;-58
2022/07/17 11:15:40;;;;;;;7.82;3.85;;;25.40;45.20;;;;;;5004780;28;20026;-59
2022/07/17 11:18:19;;;;;;;8.15;3.30;;;25.40;45.10;;;;;;5006971;28;20022;-59
2022/07/17 11:20:57;;;;;;;8.70;4.65;;;25.50;45.00;;;;;;5003362;28;20065;-59
2022/07/17 11:23:24;;;;;;;9.57;4.93;;;25.50;44.80;;;;;;5008264;28;20060;-63
2022/07/17 11:26:00;;;;;;;9.27;4.43;;;25.60;44.60;;;;;;5005457;28;20022;-59
2022/07/17 11:28:30;;;;;;;8.43;4.60;;;25.60;44.70;;;;;;5010120;28;20033;-59
2022/07/17 11:30:56;;;;;;;9.93;5.30;;;25.60;44.90;;;;;;5004823;28;20049;-59
2022/07/17 11:33:21;;;;;;;9.15;4.78;;;25.60;45.00;;;;;;5000506;28;20482;-59
2022/07/17 11:35:47;;;;;;;8.90;4.07;;;25.60;44.50;;;;;;5004092;28;20042;-59
2022/07/17 11:38:13;;;;;;;10.52;4.30;;;25.70;44.00;;;;;;5004266;28;20037;-59
2022/07/17 11:40:48;;;;;;;9.05;4.70;;;25.70;44.00;;;;;;5004781;28;20533;-59
2022/07/17 11:43:14;;;;;;;7.43;4.28;;;25.70;44.20;;;;;;5002782;28;20037;-59
2022/07/17 11:45:41;;;;;;;8.25;3.67;;;25.70;44.00;;;;;;5005312;28;20352;-59
2022/07/17 11:48:06;;;;;;;8.85;3.60;;;25.80;43.90;;;;;;5020723;28;20029;-59
2022/07/17 11:50:32;;;;;;;7.07;3.65;;;25.80;43.80;;;;;;5002938;28;20041;-59
2022/07/17 11:53:02;;;;;;;9.25;3.70;;;25.80;43.50;;;;;;5006142;28;20034;-59
2022/07/17 11:55:37;;;;;;;7.90;3.63;;;25.80;43.00;;;;;;5001613;28;20506;-59
2022/07/17 11:58:03;;;;;;;7.57;3.33;;;25.80;43.40;;;;;;5004389;28;20534;-59
2022/07/17 12:00:29;;;;;;;7.97;2.97;;;25.90;43.40;;;;;;5004526;28;20033;-59
2022/07/17 12:02:59;;;;;;;7.38;3.28;;;25.80;43.30;;;;;;5004068;28;20136;-59
2022/07/17 12:05:28;;;;;;;10.30;3.30;;;25.90;43.60;;;;;;5003714;28;20026;-59
2022/07/17 12:07:54;;;;;;;6.53;3.20;;;25.90;43.40;;;;;;4987689;28;20402;-59
2022/07/17 12:10:22;;;;;;;5.95;3.08;;;26.00;43.50;;;;;;5004479;28;20033;-59
2022/07/17 12:13:01;;;;;;;5.93;3.15;;;26.00;43.40;;;;;;5003278;28;20029;-59
2022/07/17 12:15:42;;;;;;;7.50;3.13;;;26.00;43.20;;;;;;5006263;28;20398;-59
2022/07/17 12:18:22;;;;;;;6.63;2.90;;;26.00;43.20;;;;;;5004804;28;20441;-59
2022/07/17 12:20:48;;;;;;;5.60;2.90;;;26.00;43.10;;;;;;4999679;28;20042;-59
2022/07/17 12:23:37;;;;;;;9.68;3.20;;;26.00;43.30;;;;;;5002086;28;20026;-59
2022/07/17 12:26:14;;;;;;;7.18;2.85;;;26.00;43.10;;;;;;5005991;28;20066;-59
2022/07/17 12:28:40;;;;;;;7.63;3.00;;;26.10;43.60;;;;;;5005193;28;20033;-59
2022/07/17 12:31:07;;;;;;;8.40;3.00;;;26.20;43.30;;;;;;5000425;28;20033;-59
2022/07/17 12:33:33;;;;;;;7.53;2.97;;;26.20;43.10;;;;;;5001414;28;20044;-59
2022/07/17 12:35:59;;;;;;;7.50;2.80;;;26.20;43.10;;;;;;5003212;28;20017;-59
2022/07/17 12:38:24;;;;;;;6.82;3.10;;;26.20;43.20;;;;;;5001448;28;20034;-59
2022/07/17 12:40:50;;;;;;;7.45;2.88;;;26.20;43.40;;;;;;5002696;28;20471;-59
2022/07/17 12:43:16;;;;;;;7.53;3.10;;;26.30;43.30;;;;;;5006386;28;20405;-59